Rayle, Georgia
Current Conditions -  °F | °C
As of 10:15 PM on Saturday 25 Oct 2014 (Local Time) from KIIY Reporting Station
Clear Clear  
Wind Chill: 61°   Ceiling: Unl
Heat Index: 61°   Visibility: 10mi
Dew Point: 55°   Wind: 5mph
Humidity: 82%   Direction: 250°WSW
Pressure: 30"   Gusts: NA
Location:  33.79°N, 82.9°W
Report Text: KIIY 260215Z AUTO 25004KT 10SM CLR 16/13 A3000 RMK AO2
Loading
Personal Weather Stations






























Interactive Weather Map
Tropical Storm Tracking
New forecast layout! Learn more

10-Day Weather Forecast

Advertisements
Track Severe Weather on mobile